createdAt,value
2023-03-23T15:58:53.934Z,93583.00
2023-03-23T16:01:31.501Z,93577.00
2023-03-23T16:04:07.850Z,93587.00
2023-03-23T16:06:36.199Z,93585.00
2023-03-23T16:09:07.153Z,93575.00
2023-03-23T16:11:36.751Z,93587.00
2023-03-23T16:14:03.610Z,93591.00
2023-03-23T16:16:38.279Z,93600.00
2023-03-23T16:19:06.660Z,93599.00
2023-03-23T16:21:36.169Z,93593.00
2023-03-23T16:24:05.570Z,93592.00
2023-03-23T16:26:34.783Z,93593.00
2023-03-23T16:29:14.554Z,93594.00
2023-03-23T16:31:50.606Z,93595.00
2023-03-23T16:34:17.514Z,93588.00
2023-03-23T16:36:44.443Z,93588.00
2023-03-23T16:39:15.848Z,93588.00
2023-03-23T16:41:42.833Z,93592.00
2023-03-23T16:44:09.661Z,93599.00
2023-03-23T16:46:36.642Z,93593.00
2023-03-23T16:49:03.651Z,93594.00
2023-03-23T16:51:30.524Z,93598.00
2023-03-23T16:53:57.464Z,93605.00
2023-03-23T16:56:24.683Z,93598.00
2023-03-23T16:58:51.571Z,93596.00
2023-03-23T17:01:19.821Z,93597.00
2023-03-23T17:03:49.509Z,93597.00
2023-03-23T17:06:19.017Z,93603.00
2023-03-23T17:08:45.923Z,93602.00
2023-03-23T17:11:12.856Z,93598.00
2023-03-23T17:13:42.743Z,93602.00
2023-03-23T17:16:12.320Z,93611.00
2023-03-23T17:18:39.245Z,93612.00
2023-03-23T17:21:06.852Z,93609.00
2023-03-23T17:23:33.799Z,93615.00
2023-03-23T17:26:01.363Z,93618.00
2023-03-23T17:28:30.407Z,93614.00
2023-03-23T17:30:57.488Z,93599.00
2023-03-23T17:33:24.336Z,93620.00
2023-03-23T17:35:52.138Z,93618.00
2023-03-23T17:38:22.017Z,93611.00
2023-03-23T17:40:56.545Z,93615.00
2023-03-23T17:43:25.625Z,93619.00
2023-03-23T17:45:52.595Z,93619.00
2023-03-23T17:48:19.577Z,93616.00
2023-03-23T17:50:57.392Z,93621.00
2023-03-23T17:53:26.094Z,93628.00
2023-03-23T17:55:57.072Z,93631.00
2023-03-23T17:58:26.975Z,93625.00
2023-03-23T18:00:55.902Z,93629.00
2023-03-23T18:03:24.506Z,93628.00
2023-03-23T18:05:52.745Z,93626.00
2023-03-23T18:08:19.623Z,93636.00
2023-03-23T18:10:46.913Z,93630.00
2023-03-23T18:13:13.851Z,93633.00
2023-03-23T18:15:46.700Z,93633.00
2023-03-23T18:18:17.090Z,93638.00
2023-03-23T18:20:44.170Z,93636.00
2023-03-23T18:23:12.117Z,93635.00
2023-03-23T18:25:40.279Z,93623.00
2023-03-23T18:28:07.265Z,93637.00
2023-03-23T18:30:35.333Z,93636.00
2023-03-23T18:33:04.342Z,93628.00
2023-03-23T18:35:31.331Z,93631.00
2023-03-23T18:37:58.429Z,93638.00
2023-03-23T18:40:25.786Z,93633.00
2023-03-23T18:42:52.722Z,93635.00
2023-03-23T18:45:19.638Z,93636.00
2023-03-23T18:47:46.620Z,93626.00
2023-03-23T18:50:16.876Z,93630.00
2023-03-23T18:52:45.089Z,93625.00
2023-03-23T18:55:11.982Z,93634.00
2023-03-23T18:57:44.511Z,93635.00
2023-03-23T19:00:12.276Z,93625.00
2023-03-23T19:02:41.835Z,93632.00
2023-03-23T19:05:09.824Z,93635.00
2023-03-23T19:07:38.313Z,93638.00
2023-03-23T19:10:05.895Z,93630.00
2023-03-23T19:12:32.828Z,93638.00
2023-03-23T19:14:59.716Z,93637.00
2023-03-23T19:17:26.963Z,93629.00
2023-03-23T19:22:27.194Z,93625.00
2023-03-23T19:24:54.045Z,93630.00
2023-03-23T19:27:21.248Z,93634.00
2023-03-23T19:29:48.385Z,93634.00
2023-03-23T19:32:15.684Z,93625.00
2023-03-23T19:34:50.911Z,93626.00
2023-03-23T19:37:18.666Z,93628.00
2023-03-23T19:39:48.208Z,93625.00
2023-03-23T19:42:18.084Z,93627.00
2023-03-23T19:44:45.362Z,93625.00
2023-03-23T19:47:14.841Z,93616.00
2023-03-23T19:49:42.009Z,93624.00
2023-03-23T19:52:12.682Z,93616.00
2023-03-23T19:54:46.065Z,93615.00
2023-03-23T19:57:14.030Z,93617.00
2023-03-23T19:59:41.016Z,93615.00
2023-03-23T20:02:11.566Z,93619.00
2023-03-23T20:04:41.411Z,93616.00
2023-03-23T20:07:08.427Z,93606.00
2023-03-23T20:09:36.995Z,93608.00
2023-03-23T20:12:05.077Z,93607.00
2023-03-23T20:14:33.503Z,93598.00
2023-03-23T20:17:00.722Z,93600.00
2023-03-23T20:19:30.777Z,93591.00
2023-03-23T20:21:57.735Z,93585.00
2023-03-23T20:24:24.850Z,93592.00
2023-03-23T20:26:52.323Z,93588.00
2023-03-23T20:29:21.795Z,93586.00
2023-03-23T20:31:50.808Z,93581.00
2023-03-23T20:34:31.398Z,93584.00
2023-03-23T20:37:00.641Z,93581.00
2023-03-23T20:39:30.923Z,93577.00
2023-03-23T20:42:03.371Z,93579.00
2023-03-23T20:44:34.762Z,93580.00
2023-03-23T20:47:03.289Z,93572.00
2023-03-23T20:49:33.421Z,93577.00
2023-03-23T20:52:01.217Z,93576.00
2023-03-23T20:54:28.760Z,93578.00
2023-03-23T20:57:01.129Z,93574.00
2023-03-23T20:59:30.854Z,93574.00
2023-03-23T21:01:57.805Z,93567.00
2023-03-23T21:04:30.267Z,93523.00
2023-03-23T21:06:57.764Z,93565.00
2023-03-23T21:09:25.460Z,93560.00
2023-03-23T21:11:59.417Z,93558.00
2023-03-23T21:14:27.023Z,93554.00
2023-03-23T21:16:53.991Z,93548.00
2023-03-23T21:19:21.533Z,93545.00
2023-03-23T21:21:56.780Z,93551.00
2023-03-23T21:24:29.492Z,93552.00
2023-03-23T21:27:00.546Z,93551.00
2023-03-23T21:29:32.361Z,93546.00
2023-03-23T21:32:08.141Z,93545.00
2023-03-23T21:34:37.130Z,93537.00
2023-03-23T21:37:04.218Z,93530.00
2023-03-23T21:39:31.669Z,93528.00
2023-03-23T21:41:59.589Z,93526.00
2023-03-23T21:44:26.707Z,93520.00
2023-03-23T21:46:54.606Z,93520.00
2023-03-23T21:49:21.920Z,93508.00
2023-03-23T21:51:50.036Z,93517.00
2023-03-23T21:54:17.198Z,93524.00
2023-03-23T21:56:49.005Z,93514.00
2023-03-23T21:59:17.634Z,93510.00
2023-03-23T22:01:44.625Z,93511.00
2023-03-23T22:04:11.844Z,93491.00
2023-03-23T22:06:42.433Z,93486.00
2023-03-23T22:09:11.959Z,93479.00
2023-03-23T22:11:39.284Z,93476.00
2023-03-23T22:14:06.925Z,93474.00
2023-03-23T22:16:38.706Z,93475.00
2023-03-23T22:19:08.416Z,93463.00
2023-03-23T22:21:36.712Z,93473.00
2023-03-23T22:24:08.877Z,93481.00
2023-03-23T22:26:38.321Z,93481.00
2023-03-23T22:29:06.936Z,93478.00
2023-03-23T22:31:37.293Z,93481.00
2023-03-23T22:34:04.375Z,93475.00
2023-03-23T22:36:33.756Z,93468.00
2023-03-23T22:39:04.152Z,93473.00
2023-03-23T22:41:42.550Z,93466.00
2023-03-23T22:44:19.370Z,93470.00
2023-03-23T22:46:47.344Z,93458.00
2023-03-23T22:49:14.935Z,93457.00
2023-03-23T22:51:44.381Z,93453.00
2023-03-23T22:54:11.910Z,93458.00
2023-03-23T22:56:38.975Z,93452.00
2023-03-23T22:59:07.222Z,93464.00
2023-03-23T23:01:36.959Z,93455.00
2023-03-23T23:04:06.582Z,93466.00
2023-03-23T23:06:34.060Z,93473.00
2023-03-23T23:09:01.160Z,93482.00
2023-03-23T23:11:31.483Z,93476.00
2023-03-23T23:13:58.479Z,93500.00
2023-03-23T23:16:27.633Z,93502.00
2023-03-23T23:19:00.315Z,93533.00
2023-03-23T23:21:29.721Z,93524.00
2023-03-23T23:24:01.346Z,93513.00
2023-03-23T23:26:28.460Z,93509.00
2023-03-23T23:28:57.845Z,93511.00
2023-03-23T23:31:29.221Z,93510.00
2023-03-23T23:33:59.539Z,93491.00
2023-03-23T23:36:28.108Z,93500.00
2023-03-23T23:38:56.290Z,93487.00
2023-03-23T23:41:24.266Z,93487.00
2023-03-23T23:43:51.202Z,93500.00
2023-03-23T23:46:20.939Z,93507.00
2023-03-23T23:48:48.482Z,93492.00
2023-03-23T23:51:16.625Z,93487.00
2023-03-23T23:53:46.254Z,93486.00
2023-03-23T23:56:14.323Z,93498.00
2023-03-23T23:58:41.373Z,93484.00
